sensor_id;sensor_type;location;lat;lon;timestamp;temperature;humidity
11126;DHT22;5617;54.046;10.676;2022-11-02T00:00:30;10.40;99.90
11126;DHT22;5617;54.046;10.676;2022-11-02T00:02:39;10.40;99.90
11126;DHT22;5617;54.046;10.676;2022-11-02T00:04:59;10.40;99.90
11126;DHT22;5617;54.046;10.676;2022-11-02T00:07:25;10.40;99.90
11126;DHT22;5617;54.046;10.676;2022-11-02T00:09:34;10.40;99.90
11126;DHT22;5617;54.046;10.676;2022-11-02T00:12:01;10.40;99.90
11126;DHT22;5617;54.046;10.676;2022-11-02T00:14:11;10.40;99.90
11126;DHT22;5617;54.046;10.676;2022-11-02T00:16:32;10.40;99.90
11126;DHT22;5617;54.046;10.676;2022-11-02T00:18:56;10.40;99.90
11126;DHT22;5617;54.046;10.676;2022-11-02T00:21:05;10.40;99.90
11126;DHT22;5617;54.046;10.676;2022-11-02T00:23:19;10.40;99.90
11126;DHT22;5617;54.046;10.676;2022-11-02T00:25:28;10.40;99.90
11126;DHT22;5617;54.046;10.676;2022-11-02T00:27:39;10.40;99.90
11126;DHT22;5617;54.046;10.676;2022-11-02T00:29:54;10.40;99.90
11126;DHT22;5617;54.046;10.676;2022-11-02T00:32:02;10.40;99.90
11126;DHT22;5617;54.046;10.676;2022-11-02T00:34:11;10.40;99.90
11126;DHT22;5617;54.046;10.676;2022-11-02T00:36:19;10.40;99.90
11126;DHT22;5617;54.046;10.676;2022-11-02T00:38:28;10.40;99.90
11126;DHT22;5617;54.046;10.676;2022-11-02T00:40:37;10.50;99.90
11126;DHT22;5617;54.046;10.676;2022-11-02T00:42:45;10.50;99.90
11126;DHT22;5617;54.046;10.676;2022-11-02T00:44:53;10.50;99.90
11126;DHT22;5617;54.046;10.676;2022-11-02T00:47:01;10.50;99.90
11126;DHT22;5617;54.046;10.676;2022-11-02T00:49:09;10.50;99.90
11126;DHT22;5617;54.046;10.676;2022-11-02T00:51:16;10.50;99.90
11126;DHT22;5617;54.046;10.676;2022-11-02T00:53:25;10.50;99.90
11126;DHT22;5617;54.046;10.676;2022-11-02T00:55:33;10.50;99.90
11126;DHT22;5617;54.046;10.676;2022-11-02T00:57:41;10.50;99.90
11126;DHT22;5617;54.046;10.676;2022-11-02T00:59:48;10.40;99.90
11126;DHT22;5617;54.046;10.676;2022-11-02T01:01:57;10.40;99.90
11126;DHT22;5617;54.046;10.676;2022-11-02T01:04:05;10.40;99.90
11126;DHT22;5617;54.046;10.676;2022-11-02T01:06:14;10.50;99.90
11126;DHT22;5617;54.046;10.676;2022-11-02T01:08:22;10.40;99.90
11126;DHT22;5617;54.046;10.676;2022-11-02T01:10:29;10.40;99.90
11126;DHT22;5617;54.046;10.676;2022-11-02T01:12:37;10.40;99.90
11126;DHT22;5617;54.046;10.676;2022-11-02T01:14:45;10.40;99.90
11126;DHT22;5617;54.046;10.676;2022-11-02T01:16:52;10.40;99.90
11126;DHT22;5617;54.046;10.676;2022-11-02T01:19:04;10.40;99.90
11126;DHT22;5617;54.046;10.676;2022-11-02T01:21:12;10.40;99.90
11126;DHT22;5617;54.046;10.676;2022-11-02T01:23:21;10.40;99.90
11126;DHT22;5617;54.046;10.676;2022-11-02T01:25:31;10.40;99.90
11126;DHT22;5617;54.046;10.676;2022-11-02T01:27:38;10.40;99.90
11126;DHT22;5617;54.046;10.676;2022-11-02T01:29:46;10.40;99.90
11126;DHT22;5617;54.046;10.676;2022-11-02T01:31:54;10.40;99.90
11126;DHT22;5617;54.046;10.676;2022-11-02T01:34:01;10.40;99.90
11126;DHT22;5617;54.046;10.676;2022-11-02T01:36:12;10.40;99.90
11126;DHT22;5617;54.046;10.676;2022-11-02T01:38:20;10.40;99.90
11126;DHT22;5617;54.046;10.676;2022-11-02T01:40:33;10.40;99.90
11126;DHT22;5617;54.046;10.676;2022-11-02T01:42:41;10.40;99.90
11126;DHT22;5617;54.046;10.676;2022-11-02T01:44:49;10.40;99.90
11126;DHT22;5617;54.046;10.676;2022-11-02T01:47:00;10.40;99.90
11126;DHT22;5617;54.046;10.676;2022-11-02T01:49:11;10.40;99.90
11126;DHT22;5617;54.046;10.676;2022-11-02T01:51:25;10.50;99.90
11126;DHT22;5617;54.046;10.676;2022-11-02T01:53:35;10.40;99.90
11126;DHT22;5617;54.046;10.676;2022-11-02T01:55:44;10.30;99.90
11126;DHT22;5617;54.046;10.676;2022-11-02T01:57:57;10.30;99.90
11126;DHT22;5617;54.046;10.676;2022-11-02T02:00:08;10.30;99.90
11126;DHT22;5617;54.046;10.676;2022-11-02T02:02:17;10.30;99.90
11126;DHT22;5617;54.046;10.676;2022-11-02T02:04:26;10.30;99.90
11126;DHT22;5617;54.046;10.676;2022-11-02T02:06:36;10.30;99.90
11126;DHT22;5617;54.046;10.676;2022-11-02T02:08:47;10.30;99.90
11126;DHT22;5617;54.046;10.676;2022-11-02T02:10:55;10.30;99.90
11126;DHT22;5617;54.046;10.676;2022-11-02T02:13:04;10.30;99.90
11126;DHT22;5617;54.046;10.676;2022-11-02T02:15:13;10.30;99.90
11126;DHT22;5617;54.046;10.676;2022-11-02T02:17:31;10.30;99.90
11126;DHT22;5617;54.046;10.676;2022-11-02T02:19:46;10.30;99.90
11126;DHT22;5617;54.046;10.676;2022-11-02T02:22:25;10.30;99.90
11126;DHT22;5617;54.046;10.676;2022-11-02T02:24:48;10.20;99.90
11126;DHT22;5617;54.046;10.676;2022-11-02T02:27:06;10.20;99.90
11126;DHT22;5617;54.046;10.676;2022-11-02T02:29:20;10.20;99.90
11126;DHT22;5617;54.046;10.676;2022-11-02T02:31:34;10.20;99.90
11126;DHT22;5617;54.046;10.676;2022-11-02T02:33:47;10.20;99.90
11126;DHT22;5617;54.046;10.676;2022-11-02T02:35:58;10.20;99.90
11126;DHT22;5617;54.046;10.676;2022-11-02T02:38:12;10.10;99.90
11126;DHT22;5617;54.046;10.676;2022-11-02T02:40:24;10.10;99.90
11126;DHT22;5617;54.046;10.676;2022-11-02T02:42:37;10.10;99.90
11126;DHT22;5617;54.046;10.676;2022-11-02T02:44:56;10.10;99.90
11126;DHT22;5617;54.046;10.676;2022-11-02T02:47:09;10.10;99.90
11126;DHT22;5617;54.046;10.676;2022-11-02T02:49:21;10.10;99.90
11126;DHT22;5617;54.046;10.676;2022-11-02T02:51:31;10.10;99.90
11126;DHT22;5617;54.046;10.676;2022-11-02T02:53:42;10.10;99.90
11126;DHT22;5617;54.046;10.676;2022-11-02T02:55:51;10.10;99.90
11126;DHT22;5617;54.046;10.676;2022-11-02T02:58:01;10.10;99.90
11126;DHT22;5617;54.046;10.676;2022-11-02T03:00:13;10.10;99.90
11126;DHT22;5617;54.046;10.676;2022-11-02T03:02:25;10.10;99.90
11126;DHT22;5617;54.046;10.676;2022-11-02T03:04:35;10.10;99.90
11126;DHT22;5617;54.046;10.676;2022-11-02T03:06:48;10.20;99.90
11126;DHT22;5617;54.046;10.676;2022-11-02T03:09:04;10.20;99.90
11126;DHT22;5617;54.046;10.676;2022-11-02T03:11:15;10.20;99.90
11126;DHT22;5617;54.046;10.676;2022-11-02T03:13:34;10.20;99.90
11126;DHT22;5617;54.046;10.676;2022-11-02T03:15:50;10.30;99.90
11126;DHT22;5617;54.046;10.676;2022-11-02T03:18:05;10.30;99.90
11126;DHT22;5617;54.046;10.676;2022-11-02T03:20:21;10.30;99.90
11126;DHT22;5617;54.046;10.676;2022-11-02T03:22:36;10.30;99.90
11126;DHT22;5617;54.046;10.676;2022-11-02T03:24:52;10.30;99.90
11126;DHT22;5617;54.046;10.676;2022-11-02T03:27:11;10.40;99.90
11126;DHT22;5617;54.046;10.676;2022-11-02T03:29:25;10.40;99.90
11126;DHT22;5617;54.046;10.676;2022-11-02T03:31:40;10.40;99.90
11126;DHT22;5617;54.046;10.676;2022-11-02T03:33:55;10.50;99.90
11126;DHT22;5617;54.046;10.676;2022-11-02T03:36:07;10.50;99.90
11126;DHT22;5617;54.046;10.676;2022-11-02T03:38:19;10.50;99.90
11126;DHT22;5617;54.046;10.676;2022-11-02T03:40:37;10.60;99.90
11126;DHT22;5617;54.046;10.676;2022-11-02T03:42:48;10.60;99.90
11126;DHT22;5617;54.046;10.676;2022-11-02T03:44:57;10.60;99.90
11126;DHT22;5617;54.046;10.676;2022-11-02T03:47:11;10.70;99.90
11126;DHT22;5617;54.046;10.676;2022-11-02T03:49:20;10.70;99.90
11126;DHT22;5617;54.046;10.676;2022-11-02T03:51:29;10.80;99.90
11126;DHT22;5617;54.046;10.676;2022-11-02T03:53:43;10.80;99.90
11126;DHT22;5617;54.046;10.676;2022-11-02T03:56:03;10.90;99.90
11126;DHT22;5617;54.046;10.676;2022-11-02T03:58:12;10.90;99.90
11126;DHT22;5617;54.046;10.676;2022-11-02T04:00:22;10.90;99.90
11126;DHT22;5617;54.046;10.676;2022-11-02T04:02:35;11.00;99.90
11126;DHT22;5617;54.046;10.676;2022-11-02T04:04:50;10.90;99.90
11126;DHT22;5617;54.046;10.676;2022-11-02T04:06:58;11.00;99.90
11126;DHT22;5617;54.046;10.676;2022-11-02T04:09:08;10.90;99.90
11126;DHT22;5617;54.046;10.676;2022-11-02T04:11:16;10.90;99.90
11126;DHT22;5617;54.046;10.676;2022-11-02T04:13:58;10.90;99.90
11126;DHT22;5617;54.046;10.676;2022-11-02T04:16:23;10.90;99.90
11126;DHT22;5617;54.046;10.676;2022-11-02T04:18:33;10.90;99.90
11126;DHT22;5617;54.046;10.676;2022-11-02T04:20:58;10.90;99.90
11126;DHT22;5617;54.046;10.676;2022-11-02T04:23:06;10.90;99.90
11126;DHT22;5617;54.046;10.676;2022-11-02T04:25:31;10.90;99.90
11126;DHT22;5617;54.046;10.676;2022-11-02T04:27:40;10.90;99.90
11126;DHT22;5617;54.046;10.676;2022-11-02T04:29:49;10.90;99.90
11126;DHT22;5617;54.046;10.676;2022-11-02T04:31:57;10.90;99.90
11126;DHT22;5617;54.046;10.676;2022-11-02T04:34:06;10.90;99.90
11126;DHT22;5617;54.046;10.676;2022-11-02T04:36:29;10.90;99.90
11126;DHT22;5617;54.046;10.676;2022-11-02T04:38:37;10.90;99.90
11126;DHT22;5617;54.046;10.676;2022-11-02T04:40:47;10.90;99.90
11126;DHT22;5617;54.046;10.676;2022-11-02T04:43:15;10.90;99.90
11126;DHT22;5617;54.046;10.676;2022-11-02T04:45:23;10.90;99.90
11126;DHT22;5617;54.046;10.676;2022-11-02T04:47:31;10.90;99.90
11126;DHT22;5617;54.046;10.676;2022-11-02T04:49:40;10.90;99.90
11126;DHT22;5617;54.046;10.676;2022-11-02T04:51:48;11.00;99.90
11126;DHT22;5617;54.046;10.676;2022-11-02T04:53:56;11.00;99.90
11126;DHT22;5617;54.046;10.676;2022-11-02T04:56:05;11.00;99.90
11126;DHT22;5617;54.046;10.676;2022-11-02T04:58:15;11.00;99.90
11126;DHT22;5617;54.046;10.676;2022-11-02T05:00:23;11.00;99.90
11126;DHT22;5617;54.046;10.676;2022-11-02T05:02:30;11.00;99.90
11126;DHT22;5617;54.046;10.676;2022-11-02T05:04:39;10.90;99.90
11126;DHT22;5617;54.046;10.676;2022-11-02T05:06:47;11.00;99.90
11126;DHT22;5617;54.046;10.676;2022-11-02T05:08:55;11.00;99.90
11126;DHT22;5617;54.046;10.676;2022-11-02T05:11:03;11.00;99.90
11126;DHT22;5617;54.046;10.676;2022-11-02T05:13:10;11.00;99.90
11126;DHT22;5617;54.046;10.676;2022-11-02T05:15:18;11.00;99.90
11126;DHT22;5617;54.046;10.676;2022-11-02T05:17:26;11.00;99.90
11126;DHT22;5617;54.046;10.676;2022-11-02T05:19:33;11.00;99.90
11126;DHT22;5617;54.046;10.676;2022-11-02T05:21:42;11.00;99.90
11126;DHT22;5617;54.046;10.676;2022-11-02T05:23:50;11.00;99.90
11126;DHT22;5617;54.046;10.676;2022-11-02T05:25:59;10.90;99.90
11126;DHT22;5617;54.046;10.676;2022-11-02T05:28:07;10.90;99.90
11126;DHT22;5617;54.046;10.676;2022-11-02T05:30:15;10.90;99.90
11126;DHT22;5617;54.046;10.676;2022-11-02T05:32:23;10.90;99.90
11126;DHT22;5617;54.046;10.676;2022-11-02T05:34:31;10.90;99.90
11126;DHT22;5617;54.046;10.676;2022-11-02T05:36:38;10.80;99.90
11126;DHT22;5617;54.046;10.676;2022-11-02T05:38:51;10.80;99.90
11126;DHT22;5617;54.046;10.676;2022-11-02T05:40:59;10.80;99.90
11126;DHT22;5617;54.046;10.676;2022-11-02T05:43:08;10.70;99.90
11126;DHT22;5617;54.046;10.676;2022-11-02T05:45:17;10.70;99.90
11126;DHT22;5617;54.046;10.676;2022-11-02T05:47:24;10.70;99.90
11126;DHT22;5617;54.046;10.676;2022-11-02T05:49:32;10.70;99.90
11126;DHT22;5617;54.046;10.676;2022-11-02T05:51:40;10.70;99.90
11126;DHT22;5617;54.046;10.676;2022-11-02T05:53:51;10.60;99.90
11126;DHT22;5617;54.046;10.676;2022-11-02T05:55:59;10.60;99.90
11126;DHT22;5617;54.046;10.676;2022-11-02T05:58:07;10.60;99.90
11126;DHT22;5617;54.046;10.676;2022-11-02T06:00:15;10.50;99.90
11126;DHT22;5617;54.046;10.676;2022-11-02T06:02:23;10.50;99.90
11126;DHT22;5617;54.046;10.676;2022-11-02T06:04:31;10.50;99.90
11126;DHT22;5617;54.046;10.676;2022-11-02T06:06:39;10.50;99.90
11126;DHT22;5617;54.046;10.676;2022-11-02T06:08:50;10.40;99.90
11126;DHT22;5617;54.046;10.676;2022-11-02T06:10:58;10.40;99.90
11126;DHT22;5617;54.046;10.676;2022-11-02T06:13:09;10.40;99.90
11126;DHT22;5617;54.046;10.676;2022-11-02T06:15:17;10.40;99.90
11126;DHT22;5617;54.046;10.676;2022-11-02T06:17:25;10.40;99.90
11126;DHT22;5617;54.046;10.676;2022-11-02T06:19:32;10.40;99.90
11126;DHT22;5617;54.046;10.676;2022-11-02T06:21:40;10.40;99.90
11126;DHT22;5617;54.046;10.676;2022-11-02T06:23:48;10.40;99.90
11126;DHT22;5617;54.046;10.676;2022-11-02T06:25:58;10.40;99.90
11126;DHT22;5617;54.046;10.676;2022-11-02T06:28:06;10.40;99.90
11126;DHT22;5617;54.046;10.676;2022-11-02T06:30:14;10.40;99.90
11126;DHT22;5617;54.046;10.676;2022-11-02T06:32:21;10.40;99.90
11126;DHT22;5617;54.046;10.676;2022-11-02T06:34:30;10.40;99.90
11126;DHT22;5617;54.046;10.676;2022-11-02T06:36:37;10.40;99.90
11126;DHT22;5617;54.046;10.676;2022-11-02T06:38:45;10.50;99.90
11126;DHT22;5617;54.046;10.676;2022-11-02T06:40:54;10.50;99.90
11126;DHT22;5617;54.046;10.676;2022-11-02T06:43:03;10.60;99.90
11126;DHT22;5617;54.046;10.676;2022-11-02T06:45:11;10.60;99.90
11126;DHT22;5617;54.046;10.676;2022-11-02T06:47:19;10.70;99.90
11126;DHT22;5617;54.046;10.676;2022-11-02T06:49:27;10.70;99.90
11126;DHT22;5617;54.046;10.676;2022-11-02T06:51:34;10.80;99.90
11126;DHT22;5617;54.046;10.676;2022-11-02T06:53:42;10.80;99.90
11126;DHT22;5617;54.046;10.676;2022-11-02T06:55:51;10.80;99.90
11126;DHT22;5617;54.046;10.676;2022-11-02T06:57:59;10.80;99.90
11126;DHT22;5617;54.046;10.676;2022-11-02T07:00:11;10.90;99.90
11126;DHT22;5617;54.046;10.676;2022-11-02T07:02:19;11.00;99.90
11126;DHT22;5617;54.046;10.676;2022-11-02T07:04:27;11.00;99.90
11126;DHT22;5617;54.046;10.676;2022-11-02T07:06:35;11.10;99.90
11126;DHT22;5617;54.046;10.676;2022-11-02T07:08:43;11.10;99.90
11126;DHT22;5617;54.046;10.676;2022-11-02T07:10:51;11.20;99.90
11126;DHT22;5617;54.046;10.676;2022-11-02T07:12:59;11.30;99.90
11126;DHT22;5617;54.046;10.676;2022-11-02T07:15:09;11.30;99.90
11126;DHT22;5617;54.046;10.676;2022-11-02T07:17:17;11.30;99.90
11126;DHT22;5617;54.046;10.676;2022-11-02T07:19:24;11.40;99.90
11126;DHT22;5617;54.046;10.676;2022-11-02T07:21:32;11.40;99.90
11126;DHT22;5617;54.046;10.676;2022-11-02T07:23:40;11.50;99.90
11126;DHT22;5617;54.046;10.676;2022-11-02T07:25:47;11.50;99.90
11126;DHT22;5617;54.046;10.676;2022-11-02T07:27:55;11.60;99.90
11126;DHT22;5617;54.046;10.676;2022-11-02T07:30:08;11.70;99.90
11126;DHT22;5617;54.046;10.676;2022-11-02T07:32:16;11.70;99.90
11126;DHT22;5617;54.046;10.676;2022-11-02T07:34:23;11.80;99.90
11126;DHT22;5617;54.046;10.676;2022-11-02T07:36:31;11.80;99.90
11126;DHT22;5617;54.046;10.676;2022-11-02T07:38:39;11.90;99.90
11126;DHT22;5617;54.046;10.676;2022-11-02T07:40:48;11.90;99.90
11126;DHT22;5617;54.046;10.676;2022-11-02T07:42:56;11.90;99.90
11126;DHT22;5617;54.046;10.676;2022-11-02T07:45:04;11.90;99.90
11126;DHT22;5617;54.046;10.676;2022-11-02T07:47:14;12.00;99.90
11126;DHT22;5617;54.046;10.676;2022-11-02T07:49:22;12.00;99.90
11126;DHT22;5617;54.046;10.676;2022-11-02T07:51:29;12.10;99.90
11126;DHT22;5617;54.046;10.676;2022-11-02T07:53:37;12.10;99.90
11126;DHT22;5617;54.046;10.676;2022-11-02T07:55:45;12.20;99.90
11126;DHT22;5617;54.046;10.676;2022-11-02T07:57:54;12.30;99.90
11126;DHT22;5617;54.046;10.676;2022-11-02T08:00:02;12.40;99.90
11126;DHT22;5617;54.046;10.676;2022-11-02T08:02:11;12.40;99.90
11126;DHT22;5617;54.046;10.676;2022-11-02T08:04:21;12.50;99.90
11126;DHT22;5617;54.046;10.676;2022-11-02T08:06:28;12.60;99.90
11126;DHT22;5617;54.046;10.676;2022-11-02T08:08:36;12.60;99.90
11126;DHT22;5617;54.046;10.676;2022-11-02T08:10:45;12.60;99.90
11126;DHT22;5617;54.046;10.676;2022-11-02T08:12:54;12.60;99.90
11126;DHT22;5617;54.046;10.676;2022-11-02T08:15:02;12.60;99.90
11126;DHT22;5617;54.046;10.676;2022-11-02T08:17:10;12.60;99.90
11126;DHT22;5617;54.046;10.676;2022-11-02T08:19:18;12.70;99.90
11126;DHT22;5617;54.046;10.676;2022-11-02T08:21:27;12.70;99.90
11126;DHT22;5617;54.046;10.676;2022-11-02T08:23:35;12.70;99.90
11126;DHT22;5617;54.046;10.676;2022-11-02T08:25:43;12.70;99.90
11126;DHT22;5617;54.046;10.676;2022-11-02T08:27:55;12.70;99.90
11126;DHT22;5617;54.046;10.676;2022-11-02T08:30:03;12.80;99.90
11126;DHT22;5617;54.046;10.676;2022-11-02T08:32:11;12.90;99.90
11126;DHT22;5617;54.046;10.676;2022-11-02T08:34:22;13.00;99.90
11126;DHT22;5617;54.046;10.676;2022-11-02T08:36:31;13.10;99.90
11126;DHT22;5617;54.046;10.676;2022-11-02T08:38:41;13.20;99.90
11126;DHT22;5617;54.046;10.676;2022-11-02T08:40:48;13.30;99.90
11126;DHT22;5617;54.046;10.676;2022-11-02T08:42:56;13.30;99.90
11126;DHT22;5617;54.046;10.676;2022-11-02T08:45:05;13.30;99.90
11126;DHT22;5617;54.046;10.676;2022-11-02T08:47:13;13.30;99.90
11126;DHT22;5617;54.046;10.676;2022-11-02T08:49:23;13.30;99.90
11126;DHT22;5617;54.046;10.676;2022-11-02T08:51:32;13.30;99.90
11126;DHT22;5617;54.046;10.676;2022-11-02T08:53:40;13.30;99.90
11126;DHT22;5617;54.046;10.676;2022-11-02T08:55:48;13.30;99.90
11126;DHT22;5617;54.046;10.676;2022-11-02T08:57:57;13.30;99.90
11126;DHT22;5617;54.046;10.676;2022-11-02T09:00:06;13.30;99.90
11126;DHT22;5617;54.046;10.676;2022-11-02T09:02:14;13.30;99.90
11126;DHT22;5617;54.046;10.676;2022-11-02T09:04:23;13.30;99.90
11126;DHT22;5617;54.046;10.676;2022-11-02T09:06:32;13.30;99.90
11126;DHT22;5617;54.046;10.676;2022-11-02T09:08:40;13.40;99.90
11126;DHT22;5617;54.046;10.676;2022-11-02T09:10:49;13.30;99.90
11126;DHT22;5617;54.046;10.676;2022-11-02T09:12:58;13.30;99.90
11126;DHT22;5617;54.046;10.676;2022-11-02T09:15:07;13.30;99.90
11126;DHT22;5617;54.046;10.676;2022-11-02T09:17:15;13.40;99.90
11126;DHT22;5617;54.046;10.676;2022-11-02T09:19:23;13.40;99.90
11126;DHT22;5617;54.046;10.676;2022-11-02T09:21:32;13.40;99.90
11126;DHT22;5617;54.046;10.676;2022-11-02T09:23:40;13.40;99.90
11126;DHT22;5617;54.046;10.676;2022-11-02T09:25:48;13.50;99.90
11126;DHT22;5617;54.046;10.676;2022-11-02T09:27:57;13.50;99.90
11126;DHT22;5617;54.046;10.676;2022-11-02T09:30:05;13.50;99.90
11126;DHT22;5617;54.046;10.676;2022-11-02T09:32:14;13.60;99.90
11126;DHT22;5617;54.046;10.676;2022-11-02T09:34:21;13.60;99.90
11126;DHT22;5617;54.046;10.676;2022-11-02T09:36:29;13.60;99.90
11126;DHT22;5617;54.046;10.676;2022-11-02T09:38:38;13.60;99.90
11126;DHT22;5617;54.046;10.676;2022-11-02T09:40:53;13.70;99.90
11126;DHT22;5617;54.046;10.676;2022-11-02T09:43:13;13.70;99.90
11126;DHT22;5617;54.046;10.676;2022-11-02T09:45:24;13.70;99.90
11126;DHT22;5617;54.046;10.676;2022-11-02T09:47:38;13.80;99.90
11126;DHT22;5617;54.046;10.676;2022-11-02T09:49:48;13.80;99.90
11126;DHT22;5617;54.046;10.676;2022-11-02T09:51:58;13.80;99.90
11126;DHT22;5617;54.046;10.676;2022-11-02T09:54:13;13.80;99.90
11126;DHT22;5617;54.046;10.676;2022-11-02T09:56:21;13.90;99.90
11126;DHT22;5617;54.046;10.676;2022-11-02T09:58:33;14.00;99.90
11126;DHT22;5617;54.046;10.676;2022-11-02T10:00:46;14.10;99.90
11126;DHT22;5617;54.046;10.676;2022-11-02T10:03:00;14.10;99.90
11126;DHT22;5617;54.046;10.676;2022-11-02T10:05:25;14.10;99.90
11126;DHT22;5617;54.046;10.676;2022-11-02T10:07:49;14.10;99.90
11126;DHT22;5617;54.046;10.676;2022-11-02T10:10:02;14.00;99.90
11126;DHT22;5617;54.046;10.676;2022-11-02T10:12:13;14.00;99.90
11126;DHT22;5617;54.046;10.676;2022-11-02T10:14:24;14.00;99.90
11126;DHT22;5617;54.046;10.676;2022-11-02T10:16:38;14.00;99.90
11126;DHT22;5617;54.046;10.676;2022-11-02T10:18:47;14.00;99.90
11126;DHT22;5617;54.046;10.676;2022-11-02T10:20:58;13.90;99.90
11126;DHT22;5617;54.046;10.676;2022-11-02T10:23:07;13.90;99.90
11126;DHT22;5617;54.046;10.676;2022-11-02T10:25:17;13.80;99.90
11126;DHT22;5617;54.046;10.676;2022-11-02T10:27:26;13.80;99.90
11126;DHT22;5617;54.046;10.676;2022-11-02T10:29:41;14.00;99.90
11126;DHT22;5617;54.046;10.676;2022-11-02T10:31:51;14.10;99.90
11126;DHT22;5617;54.046;10.676;2022-11-02T10:34:11;14.30;99.90
11126;DHT22;5617;54.046;10.676;2022-11-02T10:36:36;14.60;99.90
11126;DHT22;5617;54.046;10.676;2022-11-02T10:38:56;14.60;99.90
11126;DHT22;5617;54.046;10.676;2022-11-02T10:41:38;14.50;99.90
11126;DHT22;5617;54.046;10.676;2022-11-02T10:44:07;14.40;99.90
11126;DHT22;5617;54.046;10.676;2022-11-02T10:46:26;14.30;99.90
11126;DHT22;5617;54.046;10.676;2022-11-02T10:48:44;14.40;99.90
11126;DHT22;5617;54.046;10.676;2022-11-02T10:51:00;14.50;99.90
11126;DHT22;5617;54.046;10.676;2022-11-02T10:53:12;14.60;99.90
11126;DHT22;5617;54.046;10.676;2022-11-02T10:55:25;14.70;99.90
11126;DHT22;5617;54.046;10.676;2022-11-02T10:57:36;14.60;99.90
11126;DHT22;5617;54.046;10.676;2022-11-02T11:00:22;14.40;99.90
11126;DHT22;5617;54.046;10.676;2022-11-02T11:02:31;14.10;99.90
11126;DHT22;5617;54.046;10.676;2022-11-02T11:04:39;13.90;99.90
11126;DHT22;5617;54.046;10.676;2022-11-02T11:06:48;13.80;99.90
11126;DHT22;5617;54.046;10.676;2022-11-02T11:09:02;13.70;99.90
11126;DHT22;5617;54.046;10.676;2022-11-02T11:11:16;13.70;99.90
11126;DHT22;5617;54.046;10.676;2022-11-02T11:13:27;13.60;99.90
11126;DHT22;5617;54.046;10.676;2022-11-02T11:15:34;13.60;99.90
11126;DHT22;5617;54.046;10.676;2022-11-02T11:17:43;13.70;99.90
11126;DHT22;5617;54.046;10.676;2022-11-02T11:19:52;13.80;99.90
11126;DHT22;5617;54.046;10.676;2022-11-02T11:22:01;14.00;99.90
11126;DHT22;5617;54.046;10.676;2022-11-02T11:24:25;14.20;99.90
11126;DHT22;5617;54.046;10.676;2022-11-02T11:26:33;14.50;99.90
11126;DHT22;5617;54.046;10.676;2022-11-02T11:28:53;14.70;99.90
11126;DHT22;5617;54.046;10.676;2022-11-02T11:31:08;14.10;99.90
11126;DHT22;5617;54.046;10.676;2022-11-02T11:33:18;13.60;99.90
11126;DHT22;5617;54.046;10.676;2022-11-02T11:35:31;13.20;99.90
11126;DHT22;5617;54.046;10.676;2022-11-02T11:37:46;12.70;99.90
11126;DHT22;5617;54.046;10.676;2022-11-02T11:39:58;12.30;99.90
11126;DHT22;5617;54.046;10.676;2022-11-02T11:42:14;11.90;99.90
11126;DHT22;5617;54.046;10.676;2022-11-02T11:44:24;11.70;99.90
11126;DHT22;5617;54.046;10.676;2022-11-02T11:48:50;11.50;99.90
11126;DHT22;5617;54.046;10.676;2022-11-02T11:51:00;11.50;99.90
11126;DHT22;5617;54.046;10.676;2022-11-02T11:53:21;11.60;99.90
11126;DHT22;5617;54.046;10.676;2022-11-02T11:55:29;11.90;99.90
11126;DHT22;5617;54.046;10.676;2022-11-02T11:57:37;12.20;99.90
11126;DHT22;5617;54.046;10.676;2022-11-02T11:59:47;12.40;99.90
11126;DHT22;5617;54.046;10.676;2022-11-02T12:01:59;12.80;99.90
11126;DHT22;5617;54.046;10.676;2022-11-02T12:04:07;13.00;99.90
11126;DHT22;5617;54.046;10.676;2022-11-02T12:06:22;13.30;99.90
11126;DHT22;5617;54.046;10.676;2022-11-02T12:08:39;13.60;99.90
11126;DHT22;5617;54.046;10.676;2022-11-02T12:11:01;13.90;99.90
11126;DHT22;5617;54.046;10.676;2022-11-02T12:13:23;14.10;99.90
11126;DHT22;5617;54.046;10.676;2022-11-02T12:15:48;14.30;99.90
11126;DHT22;5617;54.046;10.676;2022-11-02T12:18:12;14.50;99.90
11126;DHT22;5617;54.046;10.676;2022-11-02T12:20:36;14.50;99.90
11126;DHT22;5617;54.046;10.676;2022-11-02T12:22:51;14.50;99.90
11126;DHT22;5617;54.046;10.676;2022-11-02T12:25:10;14.40;99.90
11126;DHT22;5617;54.046;10.676;2022-11-02T12:27:30;14.30;99.90
11126;DHT22;5617;54.046;10.676;2022-11-02T12:30:02;14.30;99.90
11126;DHT22;5617;54.046;10.676;2022-11-02T12:32:22;14.40;99.90
11126;DHT22;5617;54.046;10.676;2022-11-02T12:34:50;14.40;99.90
11126;DHT22;5617;54.046;10.676;2022-11-02T12:37:11;14.30;99.90
11126;DHT22;5617;54.046;10.676;2022-11-02T12:39:28;14.10;99.90
11126;DHT22;5617;54.046;10.676;2022-11-02T12:41:47;13.90;99.90
11126;DHT22;5617;54.046;10.676;2022-11-02T12:44:02;13.70;99.90
11126;DHT22;5617;54.046;10.676;2022-11-02T12:46:25;13.50;99.90
11126;DHT22;5617;54.046;10.676;2022-11-02T12:48:45;13.30;99.90
11126;DHT22;5617;54.046;10.676;2022-11-02T12:50:58;13.00;99.90
11126;DHT22;5617;54.046;10.676;2022-11-02T12:53:25;12.50;99.90
11126;DHT22;5617;54.046;10.676;2022-11-02T12:55:40;11.90;99.90
11126;DHT22;5617;54.046;10.676;2022-11-02T12:58:00;11.30;99.90
11126;DHT22;5617;54.046;10.676;2022-11-02T13:00:16;10.90;99.90
11126;DHT22;5617;54.046;10.676;2022-11-02T13:02:29;10.70;99.90
11126;DHT22;5617;54.046;10.676;2022-11-02T13:04:45;10.80;99.90
11126;DHT22;5617;54.046;10.676;2022-11-02T13:07:00;10.80;99.90
11126;DHT22;5617;54.046;10.676;2022-11-02T13:09:13;10.80;99.90
11126;DHT22;5617;54.046;10.676;2022-11-02T13:11:29;11.10;99.90
11126;DHT22;5617;54.046;10.676;2022-11-02T13:13:42;10.90;99.90
11126;DHT22;5617;54.046;10.676;2022-11-02T13:15:52;11.00;99.90
11126;DHT22;5617;54.046;10.676;2022-11-02T13:18:05;11.00;99.90
11126;DHT22;5617;54.046;10.676;2022-11-02T13:20:19;10.90;99.90
11126;DHT22;5617;54.046;10.676;2022-11-02T13:22:34;10.90;99.90
11126;DHT22;5617;54.046;10.676;2022-11-02T13:24:46;10.90;99.90
11126;DHT22;5617;54.046;10.676;2022-11-02T13:26:59;10.90;99.90
11126;DHT22;5617;54.046;10.676;2022-11-02T13:29:14;10.90;99.90
11126;DHT22;5617;54.046;10.676;2022-11-02T13:31:28;10.80;99.90
11126;DHT22;5617;54.046;10.676;2022-11-02T13:33:41;10.80;99.90
11126;DHT22;5617;54.046;10.676;2022-11-02T13:35:51;10.80;99.90
11126;DHT22;5617;54.046;10.676;2022-11-02T13:38:03;10.80;99.90
11126;DHT22;5617;54.046;10.676;2022-11-02T13:40:15;10.80;99.90
11126;DHT22;5617;54.046;10.676;2022-11-02T13:45:17;10.80;99.90
11126;DHT22;5617;54.046;10.676;2022-11-02T13:47:49;10.70;99.90
11126;DHT22;5617;54.046;10.676;2022-11-02T13:50:01;10.70;99.90
11126;DHT22;5617;54.046;10.676;2022-11-02T13:52:13;10.70;99.90
11126;DHT22;5617;54.046;10.676;2022-11-02T13:54:24;10.70;99.90
11126;DHT22;5617;54.046;10.676;2022-11-02T13:56:35;10.60;99.90